createdAt,value
2019-02-16T00:02:31.693Z,5.40
2019-02-16T00:05:04.904Z,5.40
2019-02-16T00:07:39.528Z,5.30
2019-02-16T00:10:12.382Z,5.30
2019-02-16T00:12:45.223Z,5.30
2019-02-16T00:15:18.084Z,5.20
2019-02-16T00:17:50.942Z,5.10
2019-02-16T00:20:23.807Z,5.10
2019-02-16T00:22:56.647Z,5.00
2019-02-16T00:25:29.518Z,4.90
2019-02-16T00:28:02.393Z,4.90
2019-02-16T00:30:35.236Z,4.90
2019-02-16T00:33:08.088Z,4.80
2019-02-16T00:35:40.936Z,4.70
2019-02-16T00:38:13.805Z,4.70
2019-02-16T00:40:46.635Z,4.70
2019-02-16T00:43:19.498Z,4.70
2019-02-16T00:45:52.290Z,4.60
2019-02-16T00:48:25.132Z,4.60
2019-02-16T00:50:57.954Z,4.50
2019-02-16T00:53:30.805Z,4.50
2019-02-16T00:56:03.670Z,4.30
2019-02-16T00:58:36.488Z,4.30
2019-02-16T01:01:09.319Z,4.20
2019-02-16T01:03:42.231Z,4.00
2019-02-16T01:06:15.021Z,3.90
2019-02-16T01:08:48.065Z,3.90
2019-02-16T01:11:20.902Z,3.80
2019-02-16T01:13:53.749Z,3.60
2019-02-16T01:16:26.582Z,3.40
2019-02-16T01:18:59.439Z,3.30
2019-02-16T01:21:33.375Z,3.10
2019-02-16T01:24:06.278Z,3.00
2019-02-16T01:26:39.127Z,2.80
2019-02-16T01:29:11.955Z,2.70
2019-02-16T01:31:44.788Z,2.70
2019-02-16T01:34:17.619Z,2.60
2019-02-16T01:36:50.420Z,2.50
2019-02-16T01:39:23.284Z,2.50
2019-02-16T01:41:56.092Z,2.40
2019-02-16T01:44:28.935Z,2.40
2019-02-16T01:47:01.869Z,2.30
2019-02-16T01:49:34.700Z,2.30
2019-02-16T01:52:07.522Z,2.20
2019-02-16T01:54:40.362Z,2.20
2019-02-16T01:57:13.224Z,2.10
2019-02-16T01:59:46.088Z,2.10
2019-02-16T02:02:18.908Z,2.10
2019-02-16T02:04:51.748Z,2.10
2019-02-16T02:07:24.572Z,2.10
2019-02-16T02:09:57.489Z,2.00
2019-02-16T02:12:30.373Z,2.00
2019-02-16T02:15:03.902Z,2.00
2019-02-16T02:17:36.759Z,2.00
2019-02-16T02:20:10.695Z,1.90
2019-02-16T02:22:43.505Z,1.90
2019-02-16T02:25:16.354Z,1.80
2019-02-16T02:27:49.156Z,1.70
2019-02-16T02:30:22.056Z,1.60
2019-02-16T02:32:54.855Z,1.60
2019-02-16T02:35:27.695Z,1.50
2019-02-16T02:38:00.505Z,1.50
2019-02-16T02:40:33.328Z,1.50
2019-02-16T02:43:06.123Z,1.40
2019-02-16T02:45:38.943Z,1.40
2019-02-16T02:48:11.731Z,1.40
2019-02-16T02:50:44.567Z,1.30
2019-02-16T02:53:17.375Z,1.30
2019-02-16T02:55:50.232Z,1.30
2019-02-16T02:58:23.035Z,1.30
2019-02-16T03:00:55.871Z,1.30
2019-02-16T03:03:29.675Z,1.30
2019-02-16T03:06:02.521Z,1.20
2019-02-16T03:08:35.297Z,1.20
2019-02-16T03:11:08.157Z,1.20
2019-02-16T03:13:40.965Z,1.20
2019-02-16T03:16:13.908Z,1.10
2019-02-16T03:18:46.738Z,1.10
2019-02-16T03:21:19.568Z,1.00
2019-02-16T03:23:52.374Z,0.90
2019-02-16T03:26:39.119Z,0.90
2019-02-16T03:29:43.124Z,0.80
2019-02-16T03:32:50.565Z,0.80
2019-02-16T03:36:38.575Z,0.80
2019-02-16T03:39:22.386Z,0.80
2019-02-16T03:41:55.210Z,0.80
2019-02-16T03:44:28.054Z,0.80
2019-02-16T03:47:00.893Z,0.80
2019-02-16T03:49:33.703Z,0.70
2019-02-16T03:52:13.863Z,0.60
2019-02-16T03:54:41.270Z,0.60
2019-02-16T03:57:14.099Z,0.70
2019-02-16T03:59:46.909Z,0.60
2019-02-16T04:02:19.711Z,0.60
2019-02-16T04:04:52.522Z,0.60
2019-02-16T04:07:25.334Z,0.50
2019-02-16T04:09:58.177Z,0.50
2019-02-16T04:12:30.976Z,0.50
2019-02-16T04:15:03.812Z,0.50
2019-02-16T04:17:37.738Z,0.40
2019-02-16T04:20:10.603Z,0.40
2019-02-16T04:22:43.420Z,0.40
2019-02-16T04:25:16.242Z,0.40
2019-02-16T04:27:49.068Z,0.40
2019-02-16T04:30:21.864Z,0.40
2019-02-16T04:32:54.719Z,0.40
2019-02-16T04:35:27.734Z,0.50
2019-02-16T04:38:00.563Z,0.60
2019-02-16T04:40:34.385Z,0.70
2019-02-16T04:43:07.308Z,0.80
2019-02-16T04:45:40.127Z,0.70
2019-02-16T04:48:12.991Z,0.70
2019-02-16T04:50:47.585Z,0.60
2019-02-16T04:53:20.393Z,0.50
2019-02-16T04:55:53.251Z,0.40
2019-02-16T04:58:26.090Z,0.30
2019-02-16T05:00:58.896Z,0.30
2019-02-16T05:03:31.717Z,0.10
2019-02-16T05:06:04.519Z,0.10
2019-02-16T05:08:37.345Z,0.00
2019-02-16T05:11:10.196Z,-0.10
2019-02-16T05:13:43.049Z,-0.20
2019-02-16T05:16:15.862Z,-0.10
2019-02-16T05:18:48.692Z,-0.10
2019-02-16T05:21:23.126Z,-0.10
2019-02-16T05:23:55.941Z,-0.10
2019-02-16T05:26:28.750Z,-0.10
2019-02-16T05:29:01.537Z,-0.10
2019-02-16T05:31:34.399Z,-0.20
2019-02-16T05:34:07.192Z,-0.10
2019-02-16T05:36:40.032Z,-0.20
2019-02-16T05:39:12.848Z,-0.20
2019-02-16T05:41:45.685Z,-0.20
2019-02-16T05:44:18.484Z,-0.20
2019-02-16T05:46:51.288Z,-0.30
2019-02-16T05:49:24.075Z,-0.40
2019-02-16T05:51:56.949Z,-0.40
2019-02-16T05:54:29.760Z,-0.40
2019-02-16T05:57:02.614Z,-0.40
2019-02-16T05:59:35.413Z,-0.40
2019-02-16T06:02:08.225Z,-0.50
2019-02-16T06:04:41.066Z,-0.50
2019-02-16T06:07:13.899Z,-0.50
2019-02-16T06:09:46.712Z,-0.50
2019-02-16T06:12:19.537Z,-0.50
2019-02-16T06:14:52.381Z,-0.50
2019-02-16T06:17:25.185Z,-0.50
2019-02-16T06:19:57.992Z,-0.60
2019-02-16T06:22:30.811Z,-0.50
2019-02-16T06:25:03.802Z,-0.50
2019-02-16T06:27:36.640Z,-0.50
2019-02-16T06:30:09.452Z,-0.50
2019-02-16T06:32:42.263Z,-0.50
2019-02-16T06:35:46.380Z,-0.50
2019-02-16T06:38:19.204Z,-0.60
2019-02-16T06:40:52.034Z,-0.60
2019-02-16T06:43:24.876Z,-0.50
2019-02-16T06:45:57.701Z,-0.60
2019-02-16T06:48:30.529Z,-0.60
2019-02-16T06:51:03.326Z,-0.50
2019-02-16T06:53:36.200Z,-0.60
2019-02-16T06:56:34.453Z,-0.50
2019-02-16T06:59:07.272Z,-0.40
2019-02-16T07:01:40.192Z,-0.40
2019-02-16T07:04:13.010Z,-0.30
2019-02-16T07:06:47.638Z,-0.20
2019-02-16T07:09:20.464Z,-0.10
2019-02-16T07:11:53.280Z,0.00
2019-02-16T07:14:26.097Z,0.30
2019-02-16T07:17:17.057Z,1.00
2019-02-16T07:19:52.402Z,1.70
2019-02-16T07:22:25.196Z,2.30
2019-02-16T07:24:58.027Z,2.80
2019-02-16T07:27:30.884Z,3.30
2019-02-16T07:30:04.831Z,3.30
2019-02-16T07:32:38.628Z,3.60
2019-02-16T07:35:11.549Z,3.60
2019-02-16T07:37:44.367Z,3.80
2019-02-16T07:40:18.306Z,3.80
2019-02-16T07:42:54.183Z,3.90
2019-02-16T07:45:51.819Z,4.10
2019-02-16T07:48:50.060Z,4.60
2019-02-16T07:51:31.123Z,5.00
2019-02-16T07:54:18.895Z,5.50
2019-02-16T07:56:59.114Z,5.20
2019-02-16T07:59:42.761Z,4.90
2019-02-16T08:02:35.225Z,4.90
2019-02-16T08:05:43.041Z,4.90
2019-02-16T08:08:41.292Z,5.00
2019-02-16T08:11:42.820Z,5.20
2019-02-16T08:14:40.075Z,5.50
2019-02-16T08:17:38.764Z,5.90
2019-02-16T08:20:29.958Z,5.90
2019-02-16T08:23:40.213Z,6.20
2019-02-16T08:26:25.997Z,6.30
2019-02-16T08:29:24.214Z,6.40
2019-02-16T08:32:14.070Z,6.50
2019-02-16T08:35:04.336Z,6.40
2019-02-16T08:37:59.814Z,6.30
2019-02-16T08:40:43.281Z,6.10
2019-02-16T08:43:34.320Z,6.10
2019-02-16T08:46:17.396Z,6.10
2019-02-16T08:48:57.643Z,6.10
2019-02-16T08:51:38.597Z,6.10
2019-02-16T08:54:27.532Z,6.10
2019-02-16T08:57:18.589Z,6.10
2019-02-16T09:00:11.060Z,6.00
2019-02-16T09:02:52.529Z,6.10
2019-02-16T09:05:50.941Z,6.40
2019-02-16T09:08:55.316Z,6.50
2019-02-16T09:11:50.361Z,6.60
2019-02-16T09:14:34.714Z,6.60
2019-02-16T09:17:15.445Z,6.70
2019-02-16T09:20:19.599Z,6.70
2019-02-16T09:23:01.497Z,6.50
2019-02-16T09:26:02.849Z,6.30
2019-02-16T09:28:52.748Z,6.40
2019-02-16T09:31:38.116Z,6.40
2019-02-16T09:34:32.881Z,6.50
2019-02-16T09:37:11.883Z,6.50
2019-02-16T09:40:04.357Z,6.70
2019-02-16T09:43:12.048Z,6.80
2019-02-16T09:45:54.661Z,6.90
2019-02-16T09:48:52.919Z,6.90
2019-02-16T09:51:36.187Z,7.00
2019-02-16T09:54:31.536Z,6.90
2019-02-16T09:57:25.670Z,6.90
2019-02-16T10:00:15.161Z,7.10
2019-02-16T10:03:07.502Z,7.10
2019-02-16T10:06:12.354Z,7.10
2019-02-16T10:08:52.938Z,7.10
2019-02-16T10:11:45.635Z,7.10
2019-02-16T10:14:30.426Z,7.20
2019-02-16T10:17:13.034Z,7.20
2019-02-16T10:20:05.097Z,7.30
2019-02-16T10:22:49.476Z,7.20
2019-02-16T10:25:41.989Z,7.20
2019-02-16T10:28:34.440Z,7.30
2019-02-16T10:31:25.674Z,7.30
2019-02-16T10:34:18.151Z,7.40
2019-02-16T10:37:06.953Z,7.50
2019-02-16T10:40:05.640Z,7.50
2019-02-16T10:42:45.726Z,7.50
2019-02-16T10:45:38.194Z,7.60
2019-02-16T10:48:33.175Z,7.60
2019-02-16T10:51:13.549Z,7.60
2019-02-16T10:54:02.119Z,7.80
2019-02-16T10:56:44.268Z,7.80
2019-02-16T10:59:22.207Z,7.80
2019-02-16T11:02:08.316Z,7.80
2019-02-16T11:04:50.289Z,7.80
2019-02-16T11:07:45.530Z,8.00
2019-02-16T11:10:40.528Z,8.10
2019-02-16T11:13:42.133Z,8.20
2019-02-16T11:16:43.750Z,8.30
2019-02-16T11:19:31.912Z,8.40
2019-02-16T11:22:16.552Z,8.50
2019-02-16T11:25:15.315Z,8.50
2019-02-16T11:28:11.048Z,8.60
2019-02-16T11:31:09.544Z,8.70
2019-02-16T11:33:51.943Z,8.80
2019-02-16T11:36:44.411Z,8.80
2019-02-16T11:39:35.799Z,8.80
2019-02-16T11:42:17.315Z,8.90
2019-02-16T11:44:58.784Z,8.90
2019-02-16T11:47:57.085Z,9.10
2019-02-16T11:50:54.529Z,9.10
2019-02-16T11:53:56.505Z,9.10
2019-02-16T11:56:58.370Z,9.10
2019-02-16T11:59:51.096Z,9.10
2019-02-16T12:02:42.237Z,9.20
2019-02-16T12:05:43.921Z,9.20
2019-02-16T12:08:48.368Z,9.30
2019-02-16T12:11:43.515Z,9.30
2019-02-16T12:14:42.940Z,9.30
2019-02-16T12:17:29.685Z,9.50
2019-02-16T12:20:14.374Z,9.60
2019-02-16T12:22:55.270Z,9.70
2019-02-16T12:25:47.738Z,9.70
2019-02-16T12:28:40.214Z,9.70
2019-02-16T12:31:25.148Z,9.80
2019-02-16T12:34:33.040Z,9.90
2019-02-16T12:37:21.869Z,9.90
2019-02-16T12:40:23.444Z,10.00
2019-02-16T12:43:14.564Z,9.90
2019-02-16T12:46:05.613Z,9.90
2019-02-16T12:48:58.110Z,9.90
2019-02-16T12:51:53.367Z,10.20
2019-02-16T12:54:41.249Z,10.30
2019-02-16T12:57:29.412Z,10.30
2019-02-16T13:00:11.765Z,10.40
2019-02-16T13:03:10.147Z,10.40
2019-02-16T13:06:12.754Z,10.40
2019-02-16T13:09:06.643Z,10.30
2019-02-16T13:12:04.901Z,10.40
2019-02-16T13:15:06.328Z,10.60
2019-02-16T13:18:13.954Z,10.60
2019-02-16T13:21:05.319Z,10.60
2019-02-16T13:23:44.737Z,10.70
2019-02-16T13:26:36.008Z,10.70
2019-02-16T13:29:27.452Z,10.70
2019-02-16T13:32:22.923Z,10.60
2019-02-16T13:35:15.509Z,10.70
2019-02-16T13:38:04.518Z,10.80
2019-02-16T13:41:00.157Z,10.90
2019-02-16T13:43:51.144Z,10.90
2019-02-16T13:46:46.536Z,10.90
2019-02-16T13:49:34.293Z,11.00
2019-02-16T13:52:21.094Z,11.00
2019-02-16T13:55:23.018Z,11.10
2019-02-16T13:58:21.369Z,11.10
2019-02-16T14:01:31.784Z,11.10
2019-02-16T14:04:27.758Z,11.10
2019-02-16T14:07:14.888Z,11.10
2019-02-16T14:10:03.514Z,11.20
2019-02-16T14:12:58.788Z,11.10
2019-02-16T14:15:37.420Z,11.10
2019-02-16T14:18:10.302Z,11.30
2019-02-16T14:20:43.139Z,11.30
2019-02-16T14:23:16.002Z,11.40
2019-02-16T14:25:49.361Z,11.40
2019-02-16T14:28:22.251Z,11.40
2019-02-16T14:30:55.063Z,11.30
2019-02-16T14:33:27.947Z,11.30
2019-02-16T14:36:00.821Z,11.30
2019-02-16T14:38:48.336Z,11.40
2019-02-16T14:41:21.180Z,11.40
2019-02-16T14:43:54.155Z,11.30
2019-02-16T14:46:27.125Z,11.30
2019-02-16T14:49:00.006Z,11.30
2019-02-16T14:51:32.891Z,11.30
2019-02-16T14:54:05.813Z,11.20
2019-02-16T14:56:38.682Z,11.20
2019-02-16T14:59:11.616Z,11.30
2019-02-16T15:01:44.506Z,11.30
2019-02-16T15:04:17.397Z,11.20
2019-02-16T15:06:50.257Z,11.20
2019-02-16T15:09:23.140Z,11.20
2019-02-16T15:11:55.967Z,11.10
2019-02-16T15:14:28.864Z,11.10
2019-02-16T15:17:01.744Z,11.10
2019-02-16T15:19:34.714Z,11.00
2019-02-16T15:22:07.581Z,11.00
2019-02-16T15:24:40.415Z,10.90
2019-02-16T15:27:13.251Z,10.90
2019-02-16T15:29:46.156Z,10.90
2019-02-16T15:32:18.998Z,10.80
2019-02-16T15:34:51.908Z,10.80
2019-02-16T15:37:24.817Z,10.70
2019-02-16T15:39:57.689Z,10.70
2019-02-16T15:42:30.514Z,10.70
2019-02-16T15:45:04.287Z,10.60
2019-02-16T15:47:37.137Z,10.70
2019-02-16T15:50:11.601Z,10.60
2019-02-16T15:52:44.470Z,10.50
2019-02-16T15:55:17.378Z,10.40
2019-02-16T15:57:50.263Z,10.30
2019-02-16T16:00:24.627Z,10.30
2019-02-16T16:02:59.535Z,10.30
2019-02-16T16:05:32.385Z,10.20
2019-02-16T16:08:24.868Z,10.10
2019-02-16T16:11:09.987Z,10.10
2019-02-16T16:14:02.634Z,10.00
2019-02-16T16:16:53.952Z,9.90
2019-02-16T16:19:42.439Z,9.80
2019-02-16T16:22:34.917Z,9.70
2019-02-16T16:25:36.416Z,9.60
2019-02-16T16:28:47.502Z,9.60
2019-02-16T16:31:40.333Z,9.70
2019-02-16T16:34:34.409Z,9.70
2019-02-16T16:37:25.637Z,9.50
2019-02-16T16:40:30.536Z,9.50
2019-02-16T16:43:21.756Z,9.50
2019-02-16T16:46:20.084Z,9.30
2019-02-16T16:49:21.595Z,9.30
2019-02-16T16:52:10.275Z,9.10
2019-02-16T16:55:20.959Z,8.80
2019-02-16T16:58:11.982Z,8.40
2019-02-16T17:01:10.259Z,8.10
2019-02-16T17:03:52.431Z,8.00
2019-02-16T17:06:43.623Z,8.00
2019-02-16T17:09:27.876Z,7.90
2019-02-16T17:12:20.320Z,7.80
2019-02-16T17:15:14.410Z,7.60
2019-02-16T17:17:52.088Z,7.40
2019-02-16T17:20:57.023Z,7.40
2019-02-16T17:23:48.046Z,7.40
2019-02-16T17:26:58.746Z,7.30
2019-02-16T17:29:44.128Z,7.30
2019-02-16T17:32:48.635Z,7.20
2019-02-16T17:35:41.165Z,7.20
2019-02-16T17:38:42.257Z,7.10
2019-02-16T17:41:39.186Z,7.00
2019-02-16T17:44:25.786Z,6.80
2019-02-16T17:47:30.732Z,6.70
2019-02-16T17:50:25.060Z,6.50
2019-02-16T17:53:23.888Z,6.40
2019-02-16T17:56:19.214Z,6.50
2019-02-16T17:59:11.747Z,6.60
2019-02-16T18:02:06.979Z,6.50
2019-02-16T18:05:08.492Z,6.30
2019-02-16T18:07:58.592Z,6.20
2019-02-16T18:10:53.158Z,6.20
2019-02-16T18:13:48.441Z,6.00
2019-02-16T18:16:35.670Z,6.00
2019-02-16T18:19:15.994Z,5.90
2019-02-16T18:21:54.236Z,5.70
2019-02-16T18:24:55.742Z,5.80
2019-02-16T18:27:46.807Z,5.80
2019-02-16T18:30:42.298Z,5.70
2019-02-16T18:33:35.665Z,5.60
2019-02-16T18:36:37.185Z,5.60
2019-02-16T18:39:28.414Z,5.50
2019-02-16T18:42:19.519Z,5.60
2019-02-16T18:45:15.098Z,5.60
2019-02-16T18:48:06.504Z,5.50
2019-02-16T18:51:05.079Z,5.50
2019-02-16T18:54:02.754Z,5.40
2019-02-16T18:56:43.372Z,5.30
2019-02-16T18:59:30.329Z,5.10
2019-02-16T19:02:17.795Z,5.10
2019-02-16T19:05:04.437Z,4.90
2019-02-16T19:07:59.978Z,4.90
2019-02-16T19:10:51.150Z,4.80
2019-02-16T19:13:52.768Z,4.80
2019-02-16T19:16:41.957Z,4.60
2019-02-16T19:19:40.297Z,4.50
2019-02-16T19:22:22.892Z,4.30
2019-02-16T19:25:14.114Z,4.20
2019-02-16T19:28:06.565Z,4.20
2019-02-16T19:30:57.676Z,4.00
2019-02-16T19:33:46.905Z,3.90
2019-02-16T19:36:38.102Z,3.90
2019-02-16T19:39:30.559Z,3.80
2019-02-16T19:42:28.966Z,3.70
2019-02-16T19:45:19.835Z,3.70
2019-02-16T19:48:19.294Z,3.60
2019-02-16T19:51:02.726Z,3.60
2019-02-16T19:54:01.113Z,3.70
2019-02-16T19:56:52.507Z,3.60
2019-02-16T19:59:33.669Z,3.60
2019-02-16T20:02:28.941Z,3.50
2019-02-16T20:05:16.713Z,3.50
2019-02-16T20:08:15.423Z,3.40
2019-02-16T20:11:07.941Z,3.30
2019-02-16T20:14:18.565Z,3.30
2019-02-16T20:17:08.117Z,3.20
2019-02-16T20:19:58.694Z,3.20
2019-02-16T20:22:49.523Z,3.20
2019-02-16T20:25:44.527Z,3.10
2019-02-16T20:28:36.102Z,3.00
2019-02-16T20:31:37.257Z,2.90
2019-02-16T20:34:19.310Z,2.80
2019-02-16T20:37:10.382Z,2.70
2019-02-16T20:40:08.983Z,2.60
2019-02-16T20:43:07.685Z,2.60
2019-02-16T20:45:58.724Z,2.60
2019-02-16T20:48:49.930Z,2.60
2019-02-16T20:51:45.201Z,2.70
2019-02-16T20:54:27.826Z,2.70
2019-02-16T20:57:20.280Z,2.60
2019-02-16T21:00:15.488Z,2.50
2019-02-16T21:03:22.796Z,2.50
2019-02-16T21:06:33.141Z,2.50
2019-02-16T21:09:21.906Z,2.50
2019-02-16T21:12:17.597Z,2.40
2019-02-16T21:15:25.240Z,2.40
2019-02-16T21:18:13.245Z,2.40
2019-02-16T21:21:22.899Z,2.30
2019-02-16T21:24:04.408Z,2.30
2019-02-16T21:27:02.720Z,2.30
2019-02-16T21:29:53.880Z,2.30
2019-02-16T21:32:41.331Z,2.20
2019-02-16T21:35:30.704Z,2.20
2019-02-16T21:38:23.205Z,2.20
2019-02-16T21:41:04.678Z,2.20
2019-02-16T21:44:06.576Z,2.20
2019-02-16T21:47:04.605Z,2.10
2019-02-16T21:50:00.341Z,2.10
2019-02-16T21:52:48.285Z,2.10
2019-02-16T21:55:39.526Z,2.10
2019-02-16T21:58:29.140Z,2.00
2019-02-16T22:01:17.086Z,1.90
2019-02-16T22:04:09.598Z,1.90
2019-02-16T22:07:20.222Z,1.90
2019-02-16T22:10:14.321Z,1.80
2019-02-16T22:12:57.902Z,1.70
2019-02-16T22:15:30.742Z,1.60
2019-02-16T22:18:03.697Z,1.60
2019-02-16T22:20:36.594Z,1.60
2019-02-16T22:23:09.454Z,1.60
2019-02-16T22:25:42.333Z,1.60
2019-02-16T22:28:18.833Z,1.60
2019-02-16T22:30:50.840Z,1.50
2019-02-16T22:33:23.759Z,1.50
2019-02-16T22:35:56.879Z,1.50
2019-02-16T22:38:29.858Z,1.60
2019-02-16T22:41:02.746Z,1.50
2019-02-16T22:43:35.587Z,1.50
2019-02-16T22:46:08.444Z,1.50
2019-02-16T22:48:41.303Z,1.50
2019-02-16T22:51:14.201Z,1.50
2019-02-16T22:53:47.060Z,1.40
2019-02-16T22:56:22.426Z,1.40
2019-02-16T22:58:55.300Z,1.40
2019-02-16T23:01:28.503Z,1.40
2019-02-16T23:04:01.449Z,1.30
2019-02-16T23:06:34.285Z,1.30
2019-02-16T23:09:19.439Z,1.20
2019-02-16T23:11:52.307Z,1.20
2019-02-16T23:14:25.305Z,1.20
2019-02-16T23:16:58.288Z,1.10
2019-02-16T23:19:32.122Z,1.10
2019-02-16T23:22:04.940Z,1.10
2019-02-16T23:24:37.770Z,1.20
2019-02-16T23:27:10.821Z,1.20
2019-02-16T23:29:43.687Z,1.20
2019-02-16T23:32:16.593Z,1.20
2019-02-16T23:34:49.557Z,1.20
2019-02-16T23:37:22.403Z,1.20
2019-02-16T23:39:55.227Z,1.30
2019-02-16T23:42:28.239Z,1.30
2019-02-16T23:45:01.055Z,1.30
2019-02-16T23:47:33.877Z,1.20
2019-02-16T23:50:09.000Z,1.20
2019-02-16T23:52:41.828Z,1.10
2019-02-16T23:55:14.647Z,1.10
2019-02-16T23:57:47.476Z,1.00
